createdAt,value
2019-05-01T00:01:33.478Z,98917.20
2019-05-01T00:04:15.233Z,98921.58
2019-05-01T00:06:48.599Z,98912.36
2019-05-01T00:09:19.205Z,98898.16
2019-05-01T00:11:53.413Z,98898.16
2019-05-01T00:14:25.779Z,98897.58
2019-05-01T00:16:56.415Z,98893.05
2019-05-01T00:19:28.842Z,98887.73
2019-05-01T00:22:01.013Z,98887.91
2019-05-01T00:24:31.543Z,98878.56
2019-05-01T00:27:02.287Z,98877.98
2019-05-01T00:29:34.668Z,98878.74
2019-05-01T00:32:06.314Z,98873.23
2019-05-01T00:34:38.585Z,98875.44
2019-05-01T00:37:10.749Z,98871.54
2019-05-01T00:39:41.395Z,98867.44
2019-05-01T00:42:12.150Z,98867.17
2019-05-01T00:44:42.857Z,98859.18
2019-05-01T00:47:16.855Z,98862.59
2019-05-01T00:49:49.564Z,98845.02
2019-05-01T00:52:20.199Z,98849.21
2019-05-01T00:54:52.584Z,98842.73
2019-05-01T00:57:34.530Z,98835.66
2019-05-01T01:00:24.530Z,98835.39
2019-05-01T01:02:55.140Z,98837.49
2019-05-01T01:05:26.106Z,98837.11
2019-05-01T01:08:00.310Z,98835.29
2019-05-01T01:10:31.800Z,98835.48
2019-05-01T01:13:02.479Z,98827.79
2019-05-01T01:15:34.224Z,98824.94
2019-05-01T01:18:04.973Z,98829.08
2019-05-01T01:20:35.704Z,98822.92
2019-05-01T01:23:06.268Z,98818.84
2019-05-01T01:25:36.999Z,98818.81
2019-05-01T01:28:08.043Z,98811.43
2019-05-01T01:30:38.786Z,98812.08
2019-05-01T01:33:11.232Z,98800.47
2019-05-01T01:35:41.981Z,98804.77
2019-05-01T01:38:13.114Z,98794.95
2019-05-01T01:40:44.060Z,98796.55
2019-05-01T01:43:34.858Z,98794.95
2019-05-01T01:46:25.349Z,98793.73
2019-05-01T01:48:56.524Z,98790.12
2019-05-01T01:51:27.329Z,98781.32
2019-05-01T01:53:59.245Z,98792.17
2019-05-01T01:56:29.936Z,98784.78
2019-05-01T01:59:00.528Z,98787.14
2019-05-01T02:01:48.378Z,98786.27
2019-05-01T02:04:22.226Z,98779.41
2019-05-01T02:06:53.010Z,98779.63
2019-05-01T02:09:24.073Z,98775.15
2019-05-01T02:11:55.260Z,98767.65
2019-05-01T02:14:26.058Z,98770.30
2019-05-01T02:16:56.955Z,98763.94
2019-05-01T02:19:27.608Z,98773.38
2019-05-01T02:21:58.648Z,98765.20
2019-05-01T02:24:30.165Z,98769.14
2019-05-01T02:27:17.758Z,98773.37
2019-05-01T02:29:52.075Z,98762.09
2019-05-01T02:32:25.173Z,98764.77
2019-05-01T02:34:56.488Z,98762.70
2019-05-01T02:37:28.825Z,98762.52
2019-05-01T02:40:01.472Z,98761.97
2019-05-01T02:42:35.353Z,98761.05
2019-05-01T02:45:06.196Z,98753.49
2019-05-01T02:47:37.814Z,98754.38
2019-05-01T02:50:12.411Z,98750.83
2019-05-01T02:52:44.819Z,98746.94
2019-05-01T02:55:19.378Z,98747.19
2019-05-01T02:57:51.292Z,98748.97
2019-05-01T03:00:23.444Z,98740.05
2019-05-01T03:02:57.357Z,98740.18
2019-05-01T03:05:30.086Z,98738.95
2019-05-01T03:08:01.111Z,98736.73
2019-05-01T03:10:31.793Z,98740.84
2019-05-01T03:13:03.858Z,98742.87
2019-05-01T03:15:36.162Z,98742.92
2019-05-01T03:18:24.632Z,98738.41
2019-05-01T03:20:57.172Z,98749.69
2019-05-01T03:23:36.815Z,98739.20
2019-05-01T03:26:07.632Z,98738.28
2019-05-01T03:28:39.696Z,98736.09
2019-05-01T03:31:10.815Z,98736.80
2019-05-01T03:33:41.578Z,98749.59
2019-05-01T03:36:13.000Z,98744.95
2019-05-01T03:38:43.926Z,98736.05
2019-05-01T03:41:14.920Z,98742.63
2019-05-01T03:43:45.910Z,98748.10
2019-05-01T03:46:17.141Z,98742.62
2019-05-01T03:48:47.814Z,98750.33
2019-05-01T03:51:18.611Z,98748.91
2019-05-01T03:53:51.325Z,98756.32
2019-05-01T03:56:21.885Z,98758.58
2019-05-01T03:58:55.281Z,98757.20
2019-05-01T04:01:28.480Z,98756.91
2019-05-01T04:04:00.984Z,98753.15
2019-05-01T04:06:32.613Z,98758.93
2019-05-01T04:09:04.809Z,98754.33
2019-05-01T04:11:36.332Z,98743.66
2019-05-01T04:14:08.947Z,98736.31
2019-05-01T04:16:41.510Z,98728.67
2019-05-01T04:19:12.473Z,98725.83
2019-05-01T04:21:44.965Z,98725.83
2019-05-01T04:24:16.898Z,98732.50
2019-05-01T04:26:48.507Z,98733.70
2019-05-01T04:29:23.379Z,98738.52
2019-05-01T04:32:11.948Z,98739.88
2019-05-01T04:34:56.348Z,98732.50
2019-05-01T04:37:27.437Z,98730.57
2019-05-01T04:39:58.546Z,98732.77
2019-05-01T04:42:29.197Z,98730.91
2019-05-01T04:44:59.830Z,98734.13
2019-05-01T04:47:31.256Z,98727.16
2019-05-01T04:50:01.945Z,98726.96
2019-05-01T04:52:32.710Z,98724.30
2019-05-01T04:55:04.272Z,98721.95
2019-05-01T04:57:35.166Z,98721.25
2019-05-01T05:00:07.571Z,98719.74
2019-05-01T05:03:04.085Z,98717.76
2019-05-01T05:05:27.698Z,98718.95
2019-05-01T05:07:59.561Z,98716.02
2019-05-01T05:10:33.648Z,98714.48
2019-05-01T05:13:09.603Z,98712.24
2019-05-01T05:15:42.390Z,98713.77
2019-05-01T05:18:15.299Z,98699.98
2019-05-01T05:20:45.942Z,98696.39
2019-05-01T05:23:19.083Z,98692.84
2019-05-01T05:25:49.751Z,98687.64
2019-05-01T05:28:23.422Z,98683.88
2019-05-01T05:30:57.183Z,98677.88
2019-05-01T05:33:30.683Z,98682.42
2019-05-01T05:36:02.839Z,98678.96
2019-05-01T05:38:50.705Z,98683.02
2019-05-01T05:41:23.578Z,98677.89
2019-05-01T05:43:54.690Z,98673.39
2019-05-01T05:46:25.794Z,98668.75
2019-05-01T05:48:56.917Z,98671.77
2019-05-01T05:51:33.344Z,98662.39
2019-05-01T05:54:15.571Z,98660.98
2019-05-01T05:56:52.946Z,98671.09
2019-05-01T05:59:30.887Z,98664.14
2019-05-01T06:02:22.545Z,98661.30
2019-05-01T06:04:57.371Z,98649.23
2019-05-01T06:07:31.951Z,98649.05
2019-05-01T06:10:08.164Z,98654.94
2019-05-01T06:12:46.877Z,98652.03
2019-05-01T06:15:20.764Z,98643.22
2019-05-01T06:18:04.128Z,98644.78
2019-05-01T06:20:41.247Z,98647.13
2019-05-01T06:23:30.765Z,98647.31
2019-05-01T06:26:21.907Z,98642.05
2019-05-01T06:28:56.083Z,98643.51
2019-05-01T06:31:25.793Z,98652.39
2019-05-01T06:33:59.377Z,98656.83
2019-05-01T06:36:29.903Z,98663.47
2019-05-01T06:39:01.649Z,98668.52
2019-05-01T06:41:39.305Z,98679.29
2019-05-01T06:44:08.010Z,98677.79
2019-05-01T06:46:46.321Z,98688.30
2019-05-01T06:49:24.228Z,98685.05
2019-05-01T06:51:59.209Z,98687.86
2019-05-01T06:54:31.928Z,98683.70
2019-05-01T06:57:04.315Z,98686.66
2019-05-01T06:59:37.678Z,98689.06
2019-05-01T07:02:11.548Z,98698.92
2019-05-01T07:04:43.851Z,98692.90
2019-05-01T07:07:25.251Z,98690.32
2019-05-01T07:09:51.070Z,98682.09
2019-05-01T07:12:28.335Z,98685.25
2019-05-01T07:14:57.162Z,98686.06
2019-05-01T07:17:28.336Z,98693.94
2019-05-01T07:20:16.823Z,98689.09
2019-05-01T07:22:49.557Z,98683.39
2019-05-01T07:25:20.359Z,98685.12
2019-05-01T07:27:53.858Z,98684.73
2019-05-01T07:30:26.269Z,98680.94
2019-05-01T07:32:57.772Z,98673.67
2019-05-01T07:35:33.088Z,98674.58
2019-05-01T07:38:02.322Z,98670.50
2019-05-01T07:40:33.205Z,98674.80
2019-05-01T07:43:11.720Z,98670.36
2019-05-01T07:45:47.465Z,98671.00
2019-05-01T07:48:21.013Z,98658.52
2019-05-01T07:50:51.664Z,98652.70
2019-05-01T07:53:23.817Z,98652.22
2019-05-01T07:55:54.594Z,98652.39
2019-05-01T07:58:25.254Z,98645.78
2019-05-01T08:01:03.573Z,98644.79
2019-05-01T08:03:38.155Z,98625.56
2019-05-01T08:06:07.688Z,98619.86
2019-05-01T08:08:39.674Z,98612.70
2019-05-01T08:11:10.657Z,98610.27
2019-05-01T08:13:41.277Z,98620.66
2019-05-01T08:16:11.914Z,98613.00
2019-05-01T08:19:04.013Z,98618.28
2019-05-01T08:21:36.694Z,98621.52
2019-05-01T08:24:08.760Z,98633.67
2019-05-01T08:26:44.311Z,98640.03
2019-05-01T08:29:30.466Z,98635.28
2019-05-01T08:32:18.001Z,98636.69
2019-05-01T08:34:49.448Z,98638.62
2019-05-01T08:37:22.693Z,98632.09
2019-05-01T08:39:52.602Z,98631.16
2019-05-01T08:42:23.202Z,98631.61
2019-05-01T08:45:05.078Z,98622.18
2019-05-01T08:47:41.034Z,98627.02
2019-05-01T08:50:13.539Z,98630.66
2019-05-01T08:52:47.345Z,98620.74
2019-05-01T08:55:16.943Z,98630.28
2019-05-01T08:57:50.048Z,98618.97
2019-05-01T09:00:21.255Z,98618.10
2019-05-01T09:03:07.931Z,98626.23
2019-05-01T09:05:33.602Z,98623.86
2019-05-01T09:08:02.293Z,98617.45
2019-05-01T09:10:33.437Z,98601.81
2019-05-01T09:13:03.986Z,98600.72
2019-05-01T09:15:36.021Z,98597.14
2019-05-01T09:18:07.571Z,98605.23
2019-05-01T09:20:39.955Z,98599.52
2019-05-01T09:23:14.458Z,98588.63
2019-05-01T09:25:50.537Z,98591.31
2019-05-01T09:28:22.801Z,98572.95
2019-05-01T09:31:01.732Z,98569.16
2019-05-01T09:33:31.997Z,98576.44
2019-05-01T09:36:02.787Z,98565.36
2019-05-01T09:38:34.692Z,98567.48
2019-05-01T09:41:05.822Z,98565.77
2019-05-01T09:43:37.030Z,98562.95
2019-05-01T09:46:07.767Z,98565.65
2019-05-01T09:48:38.784Z,98570.38
2019-05-01T09:51:20.349Z,98556.18
2019-05-01T09:54:09.774Z,98554.41
2019-05-01T09:56:41.058Z,98554.89
2019-05-01T09:59:12.457Z,98553.89
2019-05-01T10:01:44.122Z,98541.75
2019-05-01T10:04:15.364Z,98539.09
2019-05-01T10:06:47.691Z,98534.73
2019-05-01T10:09:18.349Z,98532.97
2019-05-01T10:11:49.135Z,98536.31
2019-05-01T10:14:19.804Z,98529.80
2019-05-01T10:16:50.380Z,98535.38
2019-05-01T10:19:21.113Z,98528.35
2019-05-01T10:21:51.728Z,98522.40
2019-05-01T10:24:22.350Z,98519.95
2019-05-01T10:26:55.244Z,98523.30
2019-05-01T10:29:44.612Z,98523.77
2019-05-01T10:32:21.493Z,98518.91
2019-05-01T10:34:56.530Z,98518.12
2019-05-01T10:37:28.163Z,98511.45
2019-05-01T10:39:58.426Z,98514.03
2019-05-01T10:42:28.951Z,98514.81
2019-05-01T10:44:59.571Z,98521.11
2019-05-01T10:47:30.316Z,98506.41
2019-05-01T10:50:01.003Z,98504.83
2019-05-01T10:52:31.602Z,98498.00
2019-05-01T10:55:02.208Z,98504.82
2019-05-01T10:57:35.033Z,98496.92
2019-05-01T11:00:07.317Z,98495.58
2019-05-01T11:02:38.227Z,98494.16
2019-05-01T11:05:09.510Z,98493.13
2019-05-01T11:07:40.133Z,98491.39
2019-05-01T11:10:11.027Z,98488.09
2019-05-01T11:12:41.702Z,98471.33
2019-05-01T11:15:12.659Z,98471.33
2019-05-01T11:17:43.403Z,98471.00
2019-05-01T11:20:14.577Z,98471.44
2019-05-01T11:22:45.377Z,98471.44
2019-05-01T11:25:18.350Z,98455.66
2019-05-01T11:27:49.175Z,98450.70
2019-05-01T11:30:20.174Z,98457.49
2019-05-01T11:33:01.406Z,98455.70
2019-05-01T11:35:51.564Z,98452.41
2019-05-01T11:38:41.931Z,98458.06
2019-05-01T11:41:27.720Z,98458.36
2019-05-01T11:44:02.617Z,98457.00
2019-05-01T11:46:33.517Z,98449.88
2019-05-01T11:49:04.285Z,98449.88
2019-05-01T11:51:35.167Z,98454.06
2019-05-01T11:54:05.842Z,98450.27
2019-05-01T11:56:36.638Z,98446.46
2019-05-01T11:59:07.296Z,98449.13
2019-05-01T12:01:37.987Z,98438.30
2019-05-01T12:04:08.667Z,98437.19
2019-05-01T12:06:40.044Z,98432.84
2019-05-01T12:09:11.009Z,98433.98
2019-05-01T12:11:43.373Z,98427.16
2019-05-01T12:14:14.130Z,98424.18
2019-05-01T12:16:49.193Z,98420.94
2019-05-01T12:19:20.661Z,98412.30
2019-05-01T12:21:51.423Z,98400.37
2019-05-01T12:24:22.736Z,98407.38
2019-05-01T12:26:53.398Z,98404.40
2019-05-01T12:29:24.074Z,98400.30
2019-05-01T12:31:54.871Z,98392.17
2019-05-01T12:34:26.519Z,98389.45
2019-05-01T12:37:17.139Z,98384.06
2019-05-01T12:39:47.867Z,98375.38
2019-05-01T12:42:23.578Z,98384.94
2019-05-01T12:44:54.409Z,98370.12
2019-05-01T12:47:32.681Z,98362.10
2019-05-01T12:50:03.559Z,98361.80
2019-05-01T12:52:35.959Z,98355.85
2019-05-01T12:55:20.932Z,98355.59
2019-05-01T12:57:53.124Z,98353.95
2019-05-01T13:00:43.463Z,98348.49
2019-05-01T13:03:14.208Z,98340.39
2019-05-01T13:05:45.093Z,98337.42
2019-05-01T13:08:15.771Z,98332.79
2019-05-01T13:10:46.502Z,98334.94
2019-05-01T13:13:17.271Z,98325.49
2019-05-01T13:15:48.066Z,98323.86
2019-05-01T13:18:18.928Z,98307.30
2019-05-01T13:20:49.803Z,98301.09
2019-05-01T13:23:20.586Z,98294.58
2019-05-01T13:25:52.541Z,98307.80
2019-05-01T13:28:24.886Z,98300.53
2019-05-01T13:31:13.489Z,98296.37
2019-05-01T13:33:44.296Z,98289.13
2019-05-01T13:36:15.026Z,98279.05
2019-05-01T13:38:45.884Z,98282.00
2019-05-01T13:41:16.858Z,98272.61
2019-05-01T13:43:47.554Z,98264.75
2019-05-01T13:46:18.579Z,98273.92
2019-05-01T13:48:49.430Z,98272.53
2019-05-01T13:51:22.362Z,98270.40
2019-05-01T13:53:53.202Z,98276.59
2019-05-01T13:56:23.883Z,98261.98
2019-05-01T13:58:57.480Z,98271.98
2019-05-01T14:01:28.501Z,98267.55
2019-05-01T14:04:01.709Z,98271.26
2019-05-01T14:06:32.474Z,98265.28
2019-05-01T14:09:04.846Z,98270.43
2019-05-01T14:11:35.483Z,98268.31
2019-05-01T14:14:06.302Z,98279.37
2019-05-01T14:16:37.068Z,98271.52
2019-05-01T14:19:07.780Z,98271.12
2019-05-01T14:21:40.032Z,98261.88
2019-05-01T14:24:18.282Z,98262.66
2019-05-01T14:26:49.099Z,98278.28
2019-05-01T14:29:21.064Z,98266.38
2019-05-01T14:31:51.926Z,98269.94
2019-05-01T14:34:22.565Z,98259.36
2019-05-01T14:36:53.459Z,98264.19
2019-05-01T14:39:24.115Z,98263.31
2019-05-01T14:41:54.815Z,98259.73
2019-05-01T14:44:36.251Z,98261.34
2019-05-01T14:46:58.263Z,98256.77
2019-05-01T14:49:28.931Z,98255.98
2019-05-01T14:51:59.769Z,98244.61
2019-05-01T14:54:30.748Z,98250.79
2019-05-01T14:57:04.622Z,98247.05
2019-05-01T14:59:35.969Z,98246.63
2019-05-01T15:02:06.895Z,98243.70
2019-05-01T15:04:37.849Z,98245.92
2019-05-01T15:07:11.151Z,98238.33
2019-05-01T15:09:41.219Z,98238.59
2019-05-01T15:12:13.833Z,98232.06
2019-05-01T15:14:46.165Z,98221.31
2019-05-01T15:17:26.225Z,98226.69
2019-05-01T15:20:04.286Z,98228.01
2019-05-01T15:22:36.092Z,98220.98
2019-05-01T15:25:07.403Z,98218.09
2019-05-01T15:27:38.194Z,98211.72
2019-05-01T15:30:10.193Z,98207.83
2019-05-01T15:32:40.954Z,98215.68
2019-05-01T15:35:11.552Z,98219.44
2019-05-01T15:37:55.793Z,98213.13
2019-05-01T15:40:29.529Z,98209.87
2019-05-01T15:43:01.779Z,98214.71
2019-05-01T15:45:32.440Z,98211.85
2019-05-01T15:48:03.060Z,98202.98
2019-05-01T15:50:33.797Z,98204.98
2019-05-01T15:53:04.579Z,98202.28
2019-05-01T15:55:35.335Z,98202.88
2019-05-01T15:58:06.117Z,98207.41
2019-05-01T16:00:36.889Z,98211.52
2019-05-01T16:03:07.713Z,98205.28
2019-05-01T16:05:38.690Z,98204.80
2019-05-01T16:08:10.136Z,98202.78
2019-05-01T16:10:46.607Z,98197.83
2019-05-01T16:13:17.439Z,98196.98
2019-05-01T16:15:48.165Z,98199.19
2019-05-01T16:18:18.801Z,98188.51
2019-05-01T16:20:49.638Z,98189.30
2019-05-01T16:23:20.526Z,98184.27
2019-05-01T16:25:51.180Z,98182.27
2019-05-01T16:28:22.226Z,98175.97
2019-05-01T16:30:54.172Z,98179.22
2019-05-01T16:33:25.027Z,98172.40
2019-05-01T16:35:55.859Z,98176.78
2019-05-01T16:38:28.545Z,98175.77
2019-05-01T16:41:07.107Z,98183.32
2019-05-01T16:43:38.038Z,98177.36
2019-05-01T16:46:08.833Z,98170.34
2019-05-01T16:48:39.703Z,98179.61
2019-05-01T16:51:10.521Z,98181.91
2019-05-01T16:53:41.472Z,98185.52
2019-05-01T16:56:12.401Z,98180.72
2019-05-01T16:58:43.250Z,98185.88
2019-05-01T17:01:15.585Z,98192.36
2019-05-01T17:03:54.546Z,98193.10
2019-05-01T17:06:39.016Z,98192.41
2019-05-01T17:09:15.933Z,98196.55
2019-05-01T17:11:46.693Z,98200.80
2019-05-01T17:14:18.579Z,98199.95
2019-05-01T17:16:49.371Z,98208.08
2019-05-01T17:19:20.112Z,98208.22
2019-05-01T17:21:50.884Z,98214.47
2019-05-01T17:24:22.609Z,98213.38
2019-05-01T17:26:53.354Z,98207.05
2019-05-01T17:29:24.004Z,98209.96
2019-05-01T17:31:55.204Z,98218.62
2019-05-01T17:34:30.787Z,98218.41
2019-05-01T17:36:58.324Z,98219.78
2019-05-01T17:39:29.054Z,98229.67
2019-05-01T17:42:02.060Z,98223.03
2019-05-01T17:44:32.228Z,98217.96
2019-05-01T17:47:10.645Z,98216.31
2019-05-01T17:49:44.862Z,98216.98
2019-05-01T17:52:13.706Z,98210.84
2019-05-01T17:54:44.353Z,98221.51
2019-05-01T17:57:15.065Z,98221.48
2019-05-01T17:59:47.317Z,98223.52
2019-05-01T18:02:22.390Z,98220.39
2019-05-01T18:04:54.646Z,98223.16
2019-05-01T18:10:08.574Z,98223.65
2019-05-01T18:12:39.266Z,98220.82
2019-05-01T18:15:11.180Z,98225.13
2019-05-01T18:17:43.971Z,98224.91
2019-05-01T18:20:14.733Z,98228.13
2019-05-01T18:22:56.694Z,98222.70
2019-05-01T18:25:33.204Z,98228.73
2019-05-01T18:28:08.872Z,98236.61
2019-05-01T18:30:41.599Z,98231.60
2019-05-01T18:33:12.185Z,98231.45
2019-05-01T18:35:44.862Z,98230.02
2019-05-01T18:38:16.873Z,98235.63
2019-05-01T18:40:55.107Z,98228.28
2019-05-01T18:43:31.773Z,98228.45
2019-05-01T18:45:59.814Z,98225.56
2019-05-01T18:48:30.786Z,98226.43
2019-05-01T18:51:01.514Z,98221.77
2019-05-01T18:53:32.805Z,98221.05
2019-05-01T18:56:05.478Z,98222.47
2019-05-01T18:58:36.752Z,98220.25
2019-05-01T19:01:09.209Z,98220.56
2019-05-01T19:03:42.390Z,98220.40
2019-05-01T19:06:12.034Z,98226.88
2019-05-01T19:08:42.780Z,98228.31
2019-05-01T19:11:15.108Z,98230.35
2019-05-01T19:13:47.761Z,98227.03
2019-05-01T19:16:20.399Z,98230.49
2019-05-01T19:18:54.864Z,98230.84
2019-05-01T19:21:28.569Z,98228.27
2019-05-01T19:24:02.516Z,98225.42
2019-05-01T19:26:38.242Z,98238.48
2019-05-01T19:29:13.255Z,98231.13
2019-05-01T19:31:45.838Z,98228.59
2019-05-01T19:34:18.412Z,98228.31
2019-05-01T19:36:51.630Z,98240.02
2019-05-01T19:39:24.287Z,98242.61
2019-05-01T19:41:57.428Z,98244.77
2019-05-01T19:44:30.145Z,98242.90
2019-05-01T19:47:07.758Z,98239.80
2019-05-01T19:49:37.162Z,98241.17
2019-05-01T19:52:11.051Z,98241.36
2019-05-01T19:54:43.729Z,98243.41
2019-05-01T20:00:53.398Z,98235.91
2019-05-01T20:03:30.539Z,98228.78
2019-05-01T20:06:05.612Z,98222.98
2019-05-01T20:08:34.507Z,98219.22
2019-05-01T20:11:09.609Z,98223.01
2019-05-01T20:13:40.825Z,98220.41
2019-05-01T20:16:13.994Z,98217.36
2019-05-01T20:18:46.258Z,98201.52
2019-05-01T20:21:19.423Z,98199.86
2019-05-01T20:23:51.812Z,98202.63
2019-05-01T20:26:26.979Z,98204.99
2019-05-01T20:29:00.394Z,98205.22
2019-05-01T20:31:33.037Z,98216.31
2019-05-01T20:35:34.162Z,98210.87
2019-05-01T20:39:04.490Z,98208.05
2019-05-01T20:41:16.193Z,98198.98
2019-05-01T20:49:19.932Z,98192.52
2019-05-01T20:53:35.925Z,98176.58
2019-05-01T20:56:20.445Z,98164.47
2019-05-01T20:58:51.107Z,98169.88
2019-05-01T21:01:24.270Z,98169.88
2019-05-01T21:04:10.833Z,98172.42
2019-05-01T21:06:45.753Z,98165.30
2019-05-01T21:09:19.031Z,98156.70
2019-05-01T21:12:04.476Z,98155.80
2019-05-01T21:14:23.426Z,98154.77
2019-05-01T21:16:54.083Z,98151.88
2019-05-01T21:19:25.723Z,98150.89
2019-05-01T21:21:57.178Z,98141.01
2019-05-01T21:24:29.205Z,98140.99
2019-05-01T21:26:59.869Z,98150.03
2019-05-01T21:29:30.600Z,98153.94
2019-05-01T21:32:03.327Z,98147.45
2019-05-01T21:34:33.592Z,98145.66
2019-05-01T21:37:04.258Z,98144.86
2019-05-01T21:39:34.824Z,98147.00
2019-05-01T21:42:11.403Z,98137.34
2019-05-01T21:44:38.758Z,98130.67
2019-05-01T21:47:09.400Z,98130.06
2019-05-01T21:49:42.977Z,98133.20
2019-05-01T21:52:17.701Z,98133.73
2019-05-01T21:54:50.185Z,98121.56
2019-05-01T21:57:19.225Z,98124.38
2019-05-01T21:59:52.353Z,98122.30
2019-05-01T22:02:22.954Z,98120.02
2019-05-01T22:04:53.577Z,98116.23
2019-05-01T22:07:27.827Z,98119.19
2019-05-01T22:09:58.512Z,98112.50
2019-05-01T22:12:31.545Z,98106.33
2019-05-01T22:15:12.485Z,98106.33
2019-05-01T22:17:56.653Z,98114.45
2019-05-01T22:20:28.940Z,98105.44
2019-05-01T22:23:01.167Z,98103.14
2019-05-01T22:25:33.360Z,98096.06
2019-05-01T22:28:05.922Z,98096.95
2019-05-01T22:30:42.247Z,98098.39
2019-05-01T22:33:10.449Z,98100.69
2019-05-01T22:35:43.784Z,98089.53
2019-05-01T22:38:14.500Z,98095.34
2019-05-01T22:41:05.560Z,98088.81
2019-05-01T22:43:25.781Z,98089.83
2019-05-01T22:46:01.434Z,98078.18
2019-05-01T22:48:28.996Z,98071.28
2019-05-01T22:51:01.288Z,98079.52
2019-05-01T22:53:32.015Z,98076.02
2019-05-01T22:56:04.158Z,98075.73
2019-05-01T22:58:34.902Z,98078.31
2019-05-01T23:01:06.027Z,98080.47
2019-05-01T23:03:41.394Z,98076.18
2019-05-01T23:06:10.958Z,98074.40
2019-05-01T23:08:41.522Z,98072.30
2019-05-01T23:11:19.563Z,98074.84
2019-05-01T23:13:44.852Z,98072.61
2019-05-01T23:16:16.795Z,98070.00
2019-05-01T23:18:51.820Z,98074.45
2019-05-01T23:21:19.865Z,98064.66
2019-05-01T23:23:50.465Z,98064.50
2019-05-01T23:26:21.165Z,98067.11
2019-05-01T23:28:51.765Z,98063.77
2019-05-01T23:31:22.512Z,98062.14
2019-05-01T23:33:53.066Z,98055.75
2019-05-01T23:36:24.812Z,98054.80
2019-05-01T23:38:55.427Z,98058.20
2019-05-01T23:41:44.626Z,98058.80
2019-05-01T23:44:03.264Z,98055.36
2019-05-01T23:46:30.805Z,98054.47
2019-05-01T23:49:01.542Z,98056.80
2019-05-01T23:51:32.167Z,98048.68
2019-05-01T23:54:02.706Z,98042.45
2019-05-01T23:56:34.987Z,98045.66
2019-05-01T23:59:09.055Z,98038.53
